createdAt,value
2019-06-08T00:00:14.758Z,17.20
2019-06-08T00:02:50.311Z,17.20
2019-06-08T00:05:21.043Z,17.20
2019-06-08T00:07:50.457Z,17.20
2019-06-08T00:10:22.749Z,17.20
2019-06-08T00:12:51.627Z,17.10
2019-06-08T00:15:22.260Z,17.20
2019-06-08T00:17:51.722Z,17.10
2019-06-08T00:20:21.870Z,17.20
2019-06-08T00:22:51.434Z,17.20
2019-06-08T00:25:22.203Z,17.10
2019-06-08T00:27:51.901Z,17.10
2019-06-08T00:30:21.411Z,17.10
2019-06-08T00:32:51.148Z,17.10
2019-06-08T00:35:20.781Z,17.10
2019-06-08T00:37:50.262Z,17.10
2019-06-08T00:40:20.987Z,17.10
2019-06-08T00:42:50.508Z,17.10
2019-06-08T00:45:21.572Z,17.00
2019-06-08T00:47:51.166Z,17.00
2019-06-08T00:50:22.963Z,17.00
2019-06-08T00:52:52.325Z,17.00
2019-06-08T00:55:21.965Z,16.90
2019-06-08T00:57:51.387Z,16.90
2019-06-08T01:00:22.407Z,16.90
2019-06-08T01:02:51.994Z,16.90
2019-06-08T01:05:21.897Z,16.80
2019-06-08T01:07:51.504Z,16.80
2019-06-08T01:10:23.411Z,16.70
2019-06-08T01:12:52.853Z,16.70
2019-06-08T01:15:26.881Z,16.70
2019-06-08T01:18:02.906Z,16.60
2019-06-08T01:20:25.587Z,16.60
2019-06-08T01:22:55.504Z,16.60
2019-06-08T01:25:25.807Z,16.60
2019-06-08T01:27:55.333Z,16.60
2019-06-08T01:30:26.362Z,16.60
2019-06-08T01:32:55.773Z,16.60
2019-06-08T01:35:25.161Z,16.50
2019-06-08T01:37:54.587Z,16.60
2019-06-08T01:40:25.282Z,16.60
2019-06-08T01:42:54.718Z,16.50
2019-06-08T01:45:30.278Z,16.60
2019-06-08T01:48:18.837Z,16.60
2019-06-08T01:50:35.945Z,16.60
2019-06-08T01:53:05.776Z,16.50
2019-06-08T01:55:35.208Z,16.50
2019-06-08T01:58:04.769Z,16.50
2019-06-08T02:00:39.476Z,16.50
2019-06-08T02:03:05.698Z,16.50
2019-06-08T02:05:35.082Z,16.50
2019-06-08T02:08:04.557Z,16.40
2019-06-08T02:10:34.959Z,16.40
2019-06-08T02:13:08.442Z,16.50
2019-06-08T02:15:35.875Z,16.40
2019-06-08T02:18:05.463Z,16.40
2019-06-08T02:20:35.298Z,16.40
2019-06-08T02:23:04.931Z,16.40
2019-06-08T02:25:35.723Z,16.30
2019-06-08T02:28:05.389Z,16.40
2019-06-08T02:30:37.175Z,16.40
2019-06-08T02:33:06.189Z,16.40
2019-06-08T02:35:37.684Z,16.40
2019-06-08T02:38:07.025Z,16.40
2019-06-08T02:40:36.958Z,16.40
2019-06-08T02:43:06.572Z,16.40
2019-06-08T02:45:38.426Z,16.40
2019-06-08T02:48:07.648Z,16.50
2019-06-08T02:50:57.359Z,16.40
2019-06-08T02:53:29.581Z,16.50
2019-06-08T02:55:59.484Z,16.50
2019-06-08T02:58:31.046Z,16.50
2019-06-08T03:01:02.272Z,16.50
2019-06-08T03:03:35.916Z,16.50
2019-06-08T03:06:05.716Z,16.50
2019-06-08T03:08:39.259Z,16.50
2019-06-08T03:11:08.612Z,16.50
2019-06-08T03:13:40.025Z,16.60
2019-06-08T03:16:09.223Z,16.50
2019-06-08T03:18:40.149Z,16.50
2019-06-08T03:21:09.889Z,16.50
2019-06-08T03:23:41.503Z,16.50
2019-06-08T03:26:10.639Z,16.50
2019-06-08T03:28:42.192Z,16.50
2019-06-08T03:31:11.561Z,16.50
2019-06-08T03:33:50.741Z,16.50
2019-06-08T03:36:12.307Z,16.50
2019-06-08T03:38:44.753Z,16.60
2019-06-08T03:41:14.213Z,16.50
2019-06-08T03:43:44.536Z,16.50
2019-06-08T03:46:13.912Z,16.50
2019-06-08T03:48:45.796Z,16.60
2019-06-08T03:51:14.439Z,16.50
2019-06-08T03:53:46.468Z,16.50
2019-06-08T03:56:15.005Z,16.50
2019-06-08T03:58:45.992Z,16.50
2019-06-08T04:01:15.546Z,16.50
2019-06-08T04:03:46.217Z,16.50
2019-06-08T04:06:37.664Z,16.50
2019-06-08T04:09:08.815Z,16.40
2019-06-08T04:11:50.304Z,16.50
2019-06-08T04:14:19.936Z,16.50
2019-06-08T04:16:50.254Z,16.50
2019-06-08T04:19:19.815Z,16.40
2019-06-08T04:21:50.636Z,16.40
2019-06-08T04:24:20.279Z,16.40
2019-06-08T04:26:51.657Z,16.40
2019-06-08T04:29:21.078Z,16.40
2019-06-08T04:31:50.571Z,16.40
2019-06-08T04:34:20.026Z,16.40
2019-06-08T04:36:50.408Z,16.40
2019-06-08T04:39:20.367Z,16.40
2019-06-08T04:41:50.941Z,16.40
2019-06-08T04:44:20.430Z,16.40
2019-06-08T04:46:50.101Z,16.40
2019-06-08T04:49:19.537Z,16.40
2019-06-08T04:51:49.537Z,16.40
2019-06-08T04:54:19.664Z,16.30
2019-06-08T04:56:49.552Z,16.40
2019-06-08T04:59:19.114Z,16.30
2019-06-08T05:01:50.113Z,16.30
2019-06-08T05:04:19.543Z,16.30
2019-06-08T05:06:49.525Z,16.30
2019-06-08T05:09:19.264Z,16.30
2019-06-08T05:11:49.677Z,16.30
2019-06-08T05:14:19.714Z,16.30
2019-06-08T05:16:50.068Z,16.20
2019-06-08T05:19:21.288Z,16.30
2019-06-08T05:21:50.755Z,16.20
2019-06-08T05:24:20.571Z,16.20
2019-06-08T05:26:50.230Z,16.20
2019-06-08T05:29:19.632Z,16.20
2019-06-08T05:31:49.764Z,16.20
2019-06-08T05:34:19.805Z,16.10
2019-06-08T05:37:08.757Z,16.10
2019-06-08T05:39:39.545Z,16.10
2019-06-08T05:42:28.470Z,16.10
2019-06-08T05:44:58.305Z,16.10
2019-06-08T05:47:27.734Z,16.10
2019-06-08T05:49:57.385Z,16.10
2019-06-08T05:52:26.838Z,16.10
2019-06-08T05:54:57.881Z,16.10
2019-06-08T05:57:27.250Z,16.10
2019-06-08T05:59:56.711Z,16.10
2019-06-08T06:02:26.633Z,16.10
2019-06-08T06:04:56.642Z,16.20
2019-06-08T06:07:26.115Z,16.20
2019-06-08T06:09:58.575Z,16.20
2019-06-08T06:12:27.936Z,16.20
2019-06-08T06:14:59.643Z,16.20
2019-06-08T06:17:29.202Z,16.30
2019-06-08T06:19:58.816Z,16.30
2019-06-08T06:22:28.401Z,16.30
2019-06-08T06:24:58.295Z,16.30
2019-06-08T06:27:27.740Z,16.30
2019-06-08T06:29:57.161Z,16.60
2019-06-08T06:32:26.588Z,16.30
2019-06-08T06:34:58.697Z,16.30
2019-06-08T06:37:28.517Z,16.30
2019-06-08T06:39:57.938Z,16.30
2019-06-08T06:42:28.381Z,16.30
2019-06-08T06:44:57.903Z,16.30
2019-06-08T06:47:31.168Z,16.30
2019-06-08T06:50:00.534Z,16.30
2019-06-08T06:52:29.975Z,16.40
2019-06-08T06:54:59.453Z,16.40
2019-06-08T06:57:28.945Z,16.50
2019-06-08T06:59:58.337Z,16.50
2019-06-08T07:02:28.208Z,16.60
2019-06-08T07:04:57.612Z,16.60
2019-06-08T07:07:27.298Z,16.60
2019-06-08T07:09:56.696Z,16.70
2019-06-08T07:12:26.421Z,16.70
2019-06-08T07:14:55.782Z,16.80
2019-06-08T07:17:25.182Z,16.90
2019-06-08T07:19:54.757Z,17.00
2019-06-08T07:22:24.211Z,17.00
2019-06-08T07:24:54.536Z,17.10
2019-06-08T07:27:24.225Z,17.20
2019-06-08T07:29:54.763Z,17.40
2019-06-08T07:32:24.894Z,17.50
2019-06-08T07:34:55.296Z,17.70
2019-06-08T07:37:24.819Z,17.90
2019-06-08T07:39:55.948Z,18.10
2019-06-08T07:42:25.370Z,18.20
2019-06-08T07:44:55.185Z,18.30
2019-06-08T07:47:24.623Z,18.30
2019-06-08T07:49:55.459Z,18.40
2019-06-08T07:52:24.963Z,18.40
2019-06-08T07:54:54.779Z,18.40
2019-06-08T07:57:24.228Z,18.40
2019-06-08T07:59:54.584Z,18.30
2019-06-08T08:02:24.528Z,18.30
2019-06-08T08:04:54.617Z,18.20
2019-06-08T08:07:24.124Z,18.10
2019-06-08T08:09:54.811Z,18.10
2019-06-08T08:12:24.329Z,18.00
2019-06-08T08:14:55.176Z,18.00
2019-06-08T08:17:24.853Z,18.00
2019-06-08T08:19:55.146Z,18.10
2019-06-08T08:22:26.560Z,18.30
2019-06-08T08:25:02.301Z,18.50
2019-06-08T08:27:28.036Z,18.80
2019-06-08T08:30:00.047Z,19.30
2019-06-08T08:32:28.776Z,19.70
2019-06-08T08:34:59.213Z,20.30
2019-06-08T08:37:29.335Z,20.80
2019-06-08T08:40:01.315Z,21.40
2019-06-08T08:42:30.230Z,21.90
2019-06-08T08:45:04.999Z,22.40
2019-06-08T08:47:31.401Z,22.90
2019-06-08T08:50:02.147Z,23.20
2019-06-08T08:52:37.217Z,23.50
2019-06-08T08:55:02.790Z,23.60
2019-06-08T08:57:32.462Z,23.60
2019-06-08T09:00:04.916Z,23.60
2019-06-08T09:02:32.992Z,23.40
2019-06-08T09:05:03.754Z,23.20
2019-06-08T09:07:33.494Z,22.90
2019-06-08T09:10:03.773Z,22.70
2019-06-08T09:12:33.484Z,22.50
2019-06-08T09:15:04.039Z,22.20
2019-06-08T09:17:35.132Z,22.00
2019-06-08T09:20:15.336Z,21.80
2019-06-08T09:22:55.141Z,21.60
2019-06-08T09:25:13.939Z,21.40
2019-06-08T09:27:43.290Z,21.20
2019-06-08T09:30:18.243Z,21.10
2019-06-08T09:32:48.028Z,21.00
2019-06-08T09:35:18.759Z,20.90
2019-06-08T09:37:49.201Z,20.90
2019-06-08T09:40:19.819Z,20.80
2019-06-08T09:45:25.711Z,20.80
2019-06-08T09:47:55.479Z,20.80
2019-06-08T09:50:27.687Z,20.90
2019-06-08T09:53:13.101Z,21.00
2019-06-08T09:55:28.844Z,21.20
2019-06-08T09:58:01.876Z,21.40
2019-06-08T10:00:29.914Z,21.50
2019-06-08T10:03:02.486Z,21.60
2019-06-08T10:05:30.665Z,21.60
2019-06-08T10:08:01.902Z,21.70
2019-06-08T10:10:31.190Z,21.80
2019-06-08T10:13:03.556Z,22.00
2019-06-08T10:15:31.974Z,22.10
2019-06-08T10:18:03.168Z,22.20
2019-06-08T10:20:32.793Z,22.20
2019-06-08T10:23:05.114Z,22.30
2019-06-08T10:25:33.316Z,22.20
2019-06-08T10:28:10.154Z,22.20
2019-06-08T10:30:33.798Z,22.10
2019-06-08T10:33:05.137Z,22.00
2019-06-08T10:35:34.598Z,21.80
2019-06-08T10:38:06.952Z,21.80
2019-06-08T10:40:38.319Z,21.70
2019-06-08T10:43:09.877Z,21.70
2019-06-08T10:45:39.294Z,21.70
2019-06-08T10:48:09.693Z,21.70
2019-06-08T10:50:39.195Z,21.80
2019-06-08T10:53:11.910Z,21.80
2019-06-08T10:55:40.842Z,21.90
2019-06-08T10:58:11.376Z,21.90
2019-06-08T11:00:41.433Z,22.00
2019-06-08T11:03:11.911Z,22.10
2019-06-08T11:05:41.291Z,22.20
2019-06-08T11:08:14.477Z,22.40
2019-06-08T11:11:02.868Z,22.60
2019-06-08T11:13:33.384Z,22.80
2019-06-08T11:16:04.137Z,23.10
2019-06-08T11:18:33.931Z,23.10
2019-06-08T11:21:04.115Z,23.10
2019-06-08T11:37:01.911Z,22.10
2019-06-08T11:39:30.886Z,22.00
2019-06-08T11:42:00.468Z,22.00
2019-06-08T11:44:30.050Z,22.10
2019-06-08T11:47:00.409Z,22.10
2019-06-08T11:49:29.799Z,22.10
2019-06-08T11:52:00.388Z,22.10
2019-06-08T11:54:37.100Z,22.10
2019-06-08T11:57:01.216Z,22.00
2019-06-08T11:59:32.637Z,22.00
2019-06-08T12:02:02.030Z,22.00
2019-06-08T12:04:31.416Z,22.00
2019-06-08T12:07:02.071Z,22.10
2019-06-08T12:09:31.489Z,22.20
2019-06-08T12:12:00.869Z,22.30
2019-06-08T12:14:33.531Z,22.50
2019-06-08T12:17:01.544Z,22.60
2019-06-08T12:19:31.531Z,22.60
2019-06-08T12:22:01.091Z,22.70
2019-06-08T12:24:41.381Z,22.70
2019-06-08T12:27:10.246Z,22.80
2019-06-08T12:29:32.790Z,22.80
2019-06-08T12:32:02.180Z,22.90
2019-06-08T12:34:31.559Z,23.00
2019-06-08T12:37:01.211Z,23.10
2019-06-08T12:39:30.593Z,23.20
2019-06-08T12:41:59.987Z,23.30
2019-06-08T12:44:29.374Z,23.40
2019-06-08T12:46:58.848Z,23.40
2019-06-08T12:49:28.789Z,23.50
2019-06-08T12:51:58.909Z,23.60
2019-06-08T12:54:29.313Z,23.60
2019-06-08T12:57:00.757Z,23.60
2019-06-08T12:59:30.321Z,23.60
2019-06-08T13:01:59.707Z,23.60
2019-06-08T13:04:29.428Z,23.50
2019-06-08T13:06:59.417Z,23.50
2019-06-08T13:09:30.041Z,23.50
2019-06-08T13:11:59.773Z,23.50
2019-06-08T13:14:29.690Z,23.40
2019-06-08T13:17:01.158Z,23.40
2019-06-08T13:19:30.685Z,23.30
2019-06-08T13:22:00.136Z,23.20
2019-06-08T13:24:30.169Z,23.10
2019-06-08T13:27:00.238Z,23.10
2019-06-08T13:29:30.627Z,23.10
2019-06-08T13:32:01.545Z,23.10
2019-06-08T13:34:31.136Z,23.10
2019-06-08T13:37:00.529Z,23.10
2019-06-08T13:39:30.586Z,23.00
2019-06-08T13:42:00.775Z,23.00
2019-06-08T13:44:30.762Z,23.00
2019-06-08T13:47:00.842Z,23.00
2019-06-08T13:49:31.079Z,22.90
2019-06-08T13:52:01.181Z,22.90
2019-06-08T13:54:31.472Z,23.00
2019-06-08T13:57:01.275Z,23.00
2019-06-08T13:59:31.359Z,23.10
2019-06-08T14:02:01.654Z,23.10
2019-06-08T14:04:32.362Z,23.20
2019-06-08T14:07:01.852Z,23.10
2019-06-08T14:09:32.340Z,23.10
2019-06-08T14:12:01.997Z,22.90
2019-06-08T14:14:33.771Z,22.80
2019-06-08T14:17:03.580Z,22.70
2019-06-08T14:19:32.983Z,22.60
2019-06-08T14:22:02.424Z,22.50
2019-06-08T14:24:34.677Z,22.40
2019-06-08T14:27:03.802Z,22.30
2019-06-08T14:29:33.206Z,22.20
2019-06-08T14:32:02.973Z,22.20
2019-06-08T14:34:32.914Z,22.10
2019-06-08T14:37:03.181Z,22.10
2019-06-08T14:39:33.322Z,22.00
2019-06-08T14:42:03.339Z,22.10
2019-06-08T14:44:34.078Z,22.10
2019-06-08T14:47:05.149Z,22.10
2019-06-08T14:49:35.271Z,22.20
2019-06-08T14:52:04.971Z,22.20
2019-06-08T14:54:35.346Z,22.20
2019-06-08T14:57:04.921Z,22.30
2019-06-08T14:59:34.340Z,22.30
2019-06-08T15:02:04.384Z,22.30
2019-06-08T15:04:36.890Z,22.30
2019-06-08T15:07:05.566Z,22.20
2019-06-08T15:09:37.491Z,22.20
2019-06-08T15:12:09.019Z,22.20
2019-06-08T15:14:38.584Z,22.20
2019-06-08T15:17:08.584Z,22.20
2019-06-08T15:19:38.219Z,22.20
2019-06-08T15:22:08.790Z,22.20
2019-06-08T15:24:39.125Z,22.20
2019-06-08T15:27:08.580Z,22.20
2019-06-08T15:29:37.961Z,22.20
2019-06-08T15:32:08.109Z,22.20
2019-06-08T15:34:43.317Z,22.20
2019-06-08T15:37:12.717Z,22.20
2019-06-08T15:39:42.546Z,22.20
2019-06-08T15:42:12.203Z,22.30
2019-06-08T15:44:42.919Z,22.30
2019-06-08T15:47:13.978Z,22.20
2019-06-08T15:49:43.471Z,22.20
2019-06-08T15:52:13.485Z,22.20
2019-06-08T15:54:44.393Z,22.20
2019-06-08T15:57:13.797Z,22.20
2019-06-08T15:59:43.471Z,22.20
2019-06-08T16:02:12.862Z,22.20
2019-06-08T16:04:43.913Z,22.20
2019-06-08T16:07:13.677Z,22.10
2019-06-08T16:09:43.092Z,22.10
2019-06-08T16:12:12.491Z,22.10
2019-06-08T16:14:41.896Z,22.00
2019-06-08T16:17:11.527Z,22.00
2019-06-08T16:19:41.238Z,22.00
2019-06-08T16:22:10.879Z,22.00
2019-06-08T16:24:40.485Z,21.90
2019-06-08T16:27:10.003Z,21.80
2019-06-08T16:29:39.420Z,21.70
2019-06-08T16:32:09.052Z,21.60
2019-06-08T16:34:39.753Z,21.50
2019-06-08T16:37:09.394Z,21.40
2019-06-08T16:39:39.012Z,21.30
2019-06-08T16:42:08.558Z,21.20
2019-06-08T16:44:38.731Z,21.20
2019-06-08T16:47:08.786Z,21.10
2019-06-08T16:49:39.663Z,20.90
2019-06-08T16:52:09.081Z,20.90
2019-06-08T16:54:40.939Z,20.80
2019-06-08T16:57:11.177Z,20.70
2019-06-08T16:59:40.709Z,20.60
2019-06-08T17:02:10.226Z,20.50
2019-06-08T17:04:39.650Z,20.40
2019-06-08T17:07:09.561Z,20.40
2019-06-08T17:09:40.115Z,20.30
2019-06-08T17:12:11.673Z,20.20
2019-06-08T17:14:42.248Z,20.10
2019-06-08T17:17:11.639Z,20.10
2019-06-08T17:19:41.044Z,20.00
2019-06-08T17:22:10.666Z,19.90
2019-06-08T17:24:40.824Z,19.90
2019-06-08T17:27:25.696Z,19.80
2019-06-08T17:29:41.751Z,19.80
2019-06-08T17:32:11.418Z,19.80
2019-06-08T17:34:42.329Z,19.70
2019-06-08T17:37:11.810Z,19.70
2019-06-08T17:39:42.271Z,19.60
2019-06-08T17:42:12.168Z,19.60
2019-06-08T17:44:42.568Z,19.60
2019-06-08T17:47:12.053Z,19.60
2019-06-08T17:49:43.238Z,19.50
2019-06-08T17:52:12.781Z,19.50
2019-06-08T17:54:43.702Z,19.50
2019-06-08T17:57:13.055Z,19.50
2019-06-08T17:59:42.538Z,19.50
2019-06-08T18:02:18.904Z,19.40
2019-06-08T18:04:44.525Z,19.40
2019-06-08T18:07:16.930Z,19.40
2019-06-08T18:09:45.649Z,19.30
2019-06-08T18:12:15.362Z,19.30
2019-06-08T18:14:49.187Z,19.30
2019-06-08T18:17:18.612Z,19.30
2019-06-08T18:19:49.612Z,19.30
2019-06-08T18:22:19.210Z,19.20
2019-06-08T18:24:48.636Z,19.20
2019-06-08T18:27:18.355Z,19.20
2019-06-08T18:29:49.107Z,19.10
2019-06-08T18:32:18.593Z,19.10
2019-06-08T18:34:48.379Z,19.00
2019-06-08T18:37:18.398Z,18.90
2019-06-08T18:39:49.455Z,18.90
2019-06-08T18:42:20.507Z,18.80
2019-06-08T18:44:49.899Z,18.80
2019-06-08T18:47:19.294Z,18.70
2019-06-08T18:49:51.253Z,18.60
2019-06-08T18:52:20.658Z,18.50
2019-06-08T18:54:51.018Z,18.40
2019-06-08T18:57:20.478Z,18.30
2019-06-08T18:59:52.765Z,18.20
2019-06-08T19:02:21.515Z,18.10
2019-06-08T19:04:52.413Z,18.00
2019-06-08T19:07:28.142Z,17.90
2019-06-08T19:10:01.013Z,17.80
2019-06-08T19:12:33.789Z,17.80
2019-06-08T19:15:04.786Z,17.70
2019-06-08T19:17:34.196Z,17.60
2019-06-08T19:20:04.482Z,17.50
2019-06-08T19:22:33.887Z,17.50
2019-06-08T19:25:03.541Z,17.40
2019-06-08T19:27:33.004Z,17.30
2019-06-08T19:30:02.473Z,17.30
2019-06-08T19:32:31.891Z,17.20
2019-06-08T19:35:01.499Z,17.20
2019-06-08T19:37:32.805Z,17.10
2019-06-08T19:40:02.013Z,17.00
2019-06-08T19:42:41.404Z,17.00
2019-06-08T19:45:08.813Z,16.90
2019-06-08T19:47:38.417Z,16.90
2019-06-08T19:50:08.575Z,16.80
2019-06-08T19:52:42.074Z,16.80
2019-06-08T19:55:09.620Z,16.70
2019-06-08T19:57:39.291Z,16.70
2019-06-08T20:00:09.117Z,16.60
2019-06-08T20:02:38.529Z,16.60
2019-06-08T20:05:10.450Z,16.50
2019-06-08T20:07:39.426Z,16.40
2019-06-08T20:10:09.768Z,16.40
2019-06-08T20:12:41.191Z,16.30
2019-06-08T20:15:11.379Z,16.20
2019-06-08T20:17:41.639Z,16.10
2019-06-08T20:20:11.912Z,16.00
2019-06-08T20:22:41.765Z,15.90
2019-06-08T20:25:17.911Z,15.80
2019-06-08T20:27:51.578Z,15.80
2019-06-08T20:30:21.365Z,15.70
2019-06-08T20:32:52.392Z,15.60
2019-06-08T20:35:28.247Z,15.60
2019-06-08T20:37:58.049Z,15.50
2019-06-08T20:40:28.519Z,15.40
2019-06-08T20:42:57.993Z,15.30
2019-06-08T20:45:28.367Z,15.30
2019-06-08T20:47:58.479Z,15.20
2019-06-08T20:50:28.191Z,15.10
2019-06-08T20:52:57.875Z,15.10
2019-06-08T20:55:28.261Z,15.00
2019-06-08T20:57:57.971Z,14.90
2019-06-08T21:00:27.485Z,14.90
2019-06-08T21:03:02.688Z,14.80
2019-06-08T21:05:28.358Z,14.80
2019-06-08T21:07:58.924Z,14.70
2019-06-08T21:10:52.265Z,14.70
2019-06-08T21:13:19.742Z,14.60
2019-06-08T21:15:53.812Z,14.60
2019-06-08T21:18:20.939Z,14.50
2019-06-08T21:20:51.173Z,14.50
2019-06-08T21:23:20.668Z,14.40
2019-06-08T21:25:53.249Z,14.40
2019-06-08T21:28:21.176Z,14.40
2019-06-08T21:30:55.266Z,14.30
2019-06-08T21:33:21.834Z,14.30
2019-06-08T21:35:53.516Z,14.30
2019-06-08T21:38:24.217Z,14.30
2019-06-08T21:40:55.992Z,14.20
2019-06-08T21:43:24.995Z,14.20
2019-06-08T21:45:54.814Z,14.20
2019-06-08T21:48:27.392Z,14.10
2019-06-08T21:51:01.049Z,14.10
2019-06-08T21:53:27.674Z,14.10
2019-06-08T21:55:58.358Z,14.10
2019-06-08T21:58:27.837Z,14.10
2019-06-08T22:00:59.682Z,14.00
2019-06-08T22:03:28.647Z,14.00
2019-06-08T22:05:58.874Z,14.00
2019-06-08T22:08:34.387Z,14.00
2019-06-08T22:11:03.843Z,14.00
2019-06-08T22:13:33.305Z,13.90
2019-06-08T22:16:04.232Z,13.80
2019-06-08T22:18:33.812Z,13.90
2019-06-08T22:21:03.648Z,14.00
2019-06-08T22:23:33.080Z,13.90
2019-06-08T22:26:03.663Z,13.90
2019-06-08T22:28:33.455Z,13.90
2019-06-08T22:31:03.826Z,13.90
2019-06-08T22:33:33.433Z,13.90
2019-06-08T22:36:02.810Z,13.90
2019-06-08T22:38:32.546Z,13.90
2019-06-08T22:41:02.381Z,13.90
2019-06-08T22:43:32.847Z,13.90
2019-06-08T22:46:03.501Z,13.90
2019-06-08T22:48:33.023Z,13.90
2019-06-08T22:51:04.020Z,13.90
2019-06-08T22:53:33.684Z,13.90
2019-06-08T22:56:04.438Z,13.90
2019-06-08T22:58:33.982Z,13.90
2019-06-08T23:01:06.474Z,13.90
2019-06-08T23:03:34.526Z,13.90
2019-06-08T23:06:05.595Z,14.00
2019-06-08T23:08:37.435Z,14.00
2019-06-08T23:11:08.467Z,14.00
2019-06-08T23:13:37.819Z,14.00
2019-06-08T23:16:08.786Z,14.10
2019-06-08T23:18:38.524Z,14.10
2019-06-08T23:21:08.892Z,14.10
2019-06-08T23:23:38.557Z,14.20
2019-06-08T23:26:10.489Z,14.20
2019-06-08T23:28:39.074Z,14.20
2019-06-08T23:31:19.338Z,14.20
2019-06-08T23:33:39.579Z,14.20
2019-06-08T23:36:39.455Z,14.20
2019-06-08T23:38:40.126Z,14.20
2019-06-08T23:41:10.166Z,14.30
2019-06-08T23:43:40.019Z,14.20
2019-06-08T23:46:09.564Z,14.20
2019-06-08T23:48:38.954Z,14.20
2019-06-08T23:51:10.842Z,14.20
2019-06-08T23:53:39.481Z,14.20
2019-06-08T23:56:11.743Z,14.20
2019-06-08T23:58:40.327Z,14.20
